sensor_id;sensor_type;location;lat;lon;timestamp;temperature;humidity
16140;DHT22;8175;49.326;12.690;2022-10-22T00:01:10;10.90;99.90
16140;DHT22;8175;49.326;12.690;2022-10-22T00:03:36;10.90;99.90
16140;DHT22;8175;49.326;12.690;2022-10-22T00:06:02;10.90;99.90
16140;DHT22;8175;49.326;12.690;2022-10-22T00:08:28;11.00;99.90
16140;DHT22;8175;49.326;12.690;2022-10-22T00:10:53;10.90;99.90
16140;DHT22;8175;49.326;12.690;2022-10-22T00:13:19;10.90;99.90
16140;DHT22;8175;49.326;12.690;2022-10-22T00:15:45;10.90;99.90
16140;DHT22;8175;49.326;12.690;2022-10-22T00:18:11;10.90;99.90
16140;DHT22;8175;49.326;12.690;2022-10-22T00:20:36;10.90;99.90
16140;DHT22;8175;49.326;12.690;2022-10-22T00:23:02;10.80;99.90
16140;DHT22;8175;49.326;12.690;2022-10-22T00:25:28;10.90;99.90
16140;DHT22;8175;49.326;12.690;2022-10-22T00:27:53;10.90;99.90
16140;DHT22;8175;49.326;12.690;2022-10-22T00:30:19;10.80;99.90
16140;DHT22;8175;49.326;12.690;2022-10-22T00:32:45;10.80;99.90
16140;DHT22;8175;49.326;12.690;2022-10-22T00:35:10;10.90;99.90
16140;DHT22;8175;49.326;12.690;2022-10-22T00:37:36;10.90;99.90
16140;DHT22;8175;49.326;12.690;2022-10-22T00:40:03;10.90;99.90
16140;DHT22;8175;49.326;12.690;2022-10-22T00:42:28;10.90;99.90
16140;DHT22;8175;49.326;12.690;2022-10-22T00:47:48;11.00;99.90
16140;DHT22;8175;49.326;12.690;2022-10-22T00:50:48;11.10;99.90
16140;DHT22;8175;49.326;12.690;2022-10-22T00:53:16;11.10;99.90
16140;DHT22;8175;49.326;12.690;2022-10-22T00:55:44;11.10;99.90
16140;DHT22;8175;49.326;12.690;2022-10-22T00:58:11;11.10;99.90
16140;DHT22;8175;49.326;12.690;2022-10-22T01:00:37;11.10;99.90
16140;DHT22;8175;49.326;12.690;2022-10-22T01:03:03;11.10;99.90
16140;DHT22;8175;49.326;12.690;2022-10-22T01:05:30;11.00;99.90
16140;DHT22;8175;49.326;12.690;2022-10-22T01:07:57;11.00;99.90
16140;DHT22;8175;49.326;12.690;2022-10-22T01:13:15;10.90;99.90
16140;DHT22;8175;49.326;12.690;2022-10-22T01:19:09;10.90;99.90
16140;DHT22;8175;49.326;12.690;2022-10-22T01:21:41;10.90;99.90
16140;DHT22;8175;49.326;12.690;2022-10-22T01:29:59;10.90;99.90
16140;DHT22;8175;49.326;12.690;2022-10-22T01:32:29;11.00;99.90
16140;DHT22;8175;49.326;12.690;2022-10-22T01:35:00;11.10;99.90
16140;DHT22;8175;49.326;12.690;2022-10-22T01:37:29;11.10;99.90
16140;DHT22;8175;49.326;12.690;2022-10-22T01:39:58;11.10;99.90
16140;DHT22;8175;49.326;12.690;2022-10-22T01:42:24;11.10;99.90
16140;DHT22;8175;49.326;12.690;2022-10-22T01:44:50;11.10;99.90
16140;DHT22;8175;49.326;12.690;2022-10-22T01:53:06;11.20;99.90
16140;DHT22;8175;49.326;12.690;2022-10-22T01:58:51;11.30;99.90
16140;DHT22;8175;49.326;12.690;2022-10-22T02:04:02;11.40;99.90
16140;DHT22;8175;49.326;12.690;2022-10-22T02:06:31;11.40;99.90
16140;DHT22;8175;49.326;12.690;2022-10-22T02:08:59;11.50;99.90
16140;DHT22;8175;49.326;12.690;2022-10-22T02:11:25;11.40;99.90
16140;DHT22;8175;49.326;12.690;2022-10-22T02:13:54;11.50;99.90
16140;DHT22;8175;49.326;12.690;2022-10-22T02:16:47;11.50;99.90
16140;DHT22;8175;49.326;12.690;2022-10-22T02:19:25;11.50;99.90
16140;DHT22;8175;49.326;12.690;2022-10-22T02:21:52;11.50;99.90
16140;DHT22;8175;49.326;12.690;2022-10-22T02:24:18;11.50;99.90
16140;DHT22;8175;49.326;12.690;2022-10-22T02:27:04;11.60;99.90
16140;DHT22;8175;49.326;12.690;2022-10-22T02:29:38;11.60;99.90
16140;DHT22;8175;49.326;12.690;2022-10-22T02:32:07;11.50;99.90
16140;DHT22;8175;49.326;12.690;2022-10-22T02:34:34;11.60;99.90
16140;DHT22;8175;49.326;12.690;2022-10-22T02:37:01;11.60;99.90
16140;DHT22;8175;49.326;12.690;2022-10-22T02:39:28;11.60;99.90
16140;DHT22;8175;49.326;12.690;2022-10-22T02:41:55;11.60;99.90
16140;DHT22;8175;49.326;12.690;2022-10-22T02:44:22;11.60;99.90
16140;DHT22;8175;49.326;12.690;2022-10-22T02:46:49;11.60;99.90
16140;DHT22;8175;49.326;12.690;2022-10-22T02:49:15;11.60;99.90
16140;DHT22;8175;49.326;12.690;2022-10-22T02:51:41;11.60;99.90
16140;DHT22;8175;49.326;12.690;2022-10-22T02:54:06;11.60;99.90
16140;DHT22;8175;49.326;12.690;2022-10-22T02:56:32;11.60;99.90
16140;DHT22;8175;49.326;12.690;2022-10-22T02:58:58;11.60;99.90
16140;DHT22;8175;49.326;12.690;2022-10-22T03:01:24;11.60;99.90
16140;DHT22;8175;49.326;12.690;2022-10-22T03:03:50;11.60;99.90
16140;DHT22;8175;49.326;12.690;2022-10-22T03:06:16;11.60;99.90
16140;DHT22;8175;49.326;12.690;2022-10-22T03:08:42;11.70;99.90
16140;DHT22;8175;49.326;12.690;2022-10-22T03:11:07;11.70;99.90
16140;DHT22;8175;49.326;12.690;2022-10-22T03:13:33;11.80;99.90
16140;DHT22;8175;49.326;12.690;2022-10-22T03:15:59;11.80;99.90
16140;DHT22;8175;49.326;12.690;2022-10-22T03:18:24;11.80;99.90
16140;DHT22;8175;49.326;12.690;2022-10-22T03:21:41;11.80;99.90
16140;DHT22;8175;49.326;12.690;2022-10-22T03:23:47;11.80;99.90
16140;DHT22;8175;49.326;12.690;2022-10-22T03:26:13;11.70;99.90
16140;DHT22;8175;49.326;12.690;2022-10-22T03:28:40;11.60;99.90
16140;DHT22;8175;49.326;12.690;2022-10-22T03:31:06;11.60;99.90
16140;DHT22;8175;49.326;12.690;2022-10-22T03:33:32;11.70;99.90
16140;DHT22;8175;49.326;12.690;2022-10-22T03:35:58;11.70;99.90
16140;DHT22;8175;49.326;12.690;2022-10-22T03:38:25;11.70;99.90
16140;DHT22;8175;49.326;12.690;2022-10-22T03:40:50;11.70;99.90
16140;DHT22;8175;49.326;12.690;2022-10-22T03:43:16;11.60;99.90
16140;DHT22;8175;49.326;12.690;2022-10-22T03:45:42;11.60;99.90
16140;DHT22;8175;49.326;12.690;2022-10-22T03:48:08;11.60;99.90
16140;DHT22;8175;49.326;12.690;2022-10-22T03:50:33;11.60;99.90
16140;DHT22;8175;49.326;12.690;2022-10-22T03:52:59;11.60;99.90
16140;DHT22;8175;49.326;12.690;2022-10-22T03:55:25;11.60;99.90
16140;DHT22;8175;49.326;12.690;2022-10-22T03:57:50;11.60;99.90
16140;DHT22;8175;49.326;12.690;2022-10-22T04:00:16;11.60;99.90
16140;DHT22;8175;49.326;12.690;2022-10-22T04:02:42;11.60;99.90
16140;DHT22;8175;49.326;12.690;2022-10-22T04:05:07;11.60;99.90
16140;DHT22;8175;49.326;12.690;2022-10-22T04:07:33;11.60;99.90
16140;DHT22;8175;49.326;12.690;2022-10-22T04:09:59;11.60;99.90
16140;DHT22;8175;49.326;12.690;2022-10-22T04:12:24;11.60;99.90
16140;DHT22;8175;49.326;12.690;2022-10-22T04:14:50;11.70;99.90
16140;DHT22;8175;49.326;12.690;2022-10-22T04:17:16;11.70;99.90
16140;DHT22;8175;49.326;12.690;2022-10-22T04:19:42;11.70;99.90
16140;DHT22;8175;49.326;12.690;2022-10-22T04:22:07;11.70;99.90
16140;DHT22;8175;49.326;12.690;2022-10-22T04:24:33;11.70;99.90
16140;DHT22;8175;49.326;12.690;2022-10-22T04:26:58;11.80;99.90
16140;DHT22;8175;49.326;12.690;2022-10-22T04:29:25;11.80;99.90
16140;DHT22;8175;49.326;12.690;2022-10-22T04:31:51;11.80;99.90
16140;DHT22;8175;49.326;12.690;2022-10-22T04:34:16;11.80;99.90
16140;DHT22;8175;49.326;12.690;2022-10-22T04:36:42;11.80;99.90
16140;DHT22;8175;49.326;12.690;2022-10-22T04:39:08;11.70;99.90
16140;DHT22;8175;49.326;12.690;2022-10-22T04:41:37;11.70;99.90
16140;DHT22;8175;49.326;12.690;2022-10-22T04:44:04;11.60;99.90
16140;DHT22;8175;49.326;12.690;2022-10-22T04:46:31;11.60;99.90
16140;DHT22;8175;49.326;12.690;2022-10-22T04:48:57;11.60;99.90
16140;DHT22;8175;49.326;12.690;2022-10-22T04:51:24;11.60;99.90
16140;DHT22;8175;49.326;12.690;2022-10-22T04:53:50;11.60;99.90
16140;DHT22;8175;49.326;12.690;2022-10-22T04:56:19;11.70;99.90
16140;DHT22;8175;49.326;12.690;2022-10-22T04:58:46;11.70;99.90
16140;DHT22;8175;49.326;12.690;2022-10-22T05:01:18;11.70;99.90
16140;DHT22;8175;49.326;12.690;2022-10-22T05:03:45;11.60;99.90
16140;DHT22;8175;49.326;12.690;2022-10-22T05:06:12;11.60;99.90
16140;DHT22;8175;49.326;12.690;2022-10-22T05:08:38;11.60;99.90
16140;DHT22;8175;49.326;12.690;2022-10-22T05:11:18;11.60;99.90
16140;DHT22;8175;49.326;12.690;2022-10-22T05:13:44;11.60;99.90
16140;DHT22;8175;49.326;12.690;2022-10-22T05:16:10;11.70;99.90
16140;DHT22;8175;49.326;12.690;2022-10-22T05:18:38;11.60;99.90
16140;DHT22;8175;49.326;12.690;2022-10-22T05:21:07;11.60;99.90
16140;DHT22;8175;49.326;12.690;2022-10-22T05:23:33;11.60;99.90
16140;DHT22;8175;49.326;12.690;2022-10-22T05:26:03;11.70;99.90
16140;DHT22;8175;49.326;12.690;2022-10-22T05:28:29;11.70;99.90
16140;DHT22;8175;49.326;12.690;2022-10-22T05:30:56;11.70;99.90
16140;DHT22;8175;49.326;12.690;2022-10-22T05:33:23;11.70;99.90
16140;DHT22;8175;49.326;12.690;2022-10-22T05:35:49;11.60;99.90
16140;DHT22;8175;49.326;12.690;2022-10-22T05:38:15;11.60;99.90
16140;DHT22;8175;49.326;12.690;2022-10-22T05:40:41;11.70;99.90
16140;DHT22;8175;49.326;12.690;2022-10-22T05:43:06;11.70;99.90
16140;DHT22;8175;49.326;12.690;2022-10-22T05:45:39;11.80;99.90
16140;DHT22;8175;49.326;12.690;2022-10-22T05:48:06;11.80;99.90
16140;DHT22;8175;49.326;12.690;2022-10-22T05:50:35;11.80;99.90
16140;DHT22;8175;49.326;12.690;2022-10-22T05:53:02;11.80;99.90
16140;DHT22;8175;49.326;12.690;2022-10-22T05:55:28;11.70;99.90
16140;DHT22;8175;49.326;12.690;2022-10-22T05:57:53;11.80;99.90
16140;DHT22;8175;49.326;12.690;2022-10-22T06:00:19;11.80;99.90
16140;DHT22;8175;49.326;12.690;2022-10-22T06:02:49;11.70;99.90
16140;DHT22;8175;49.326;12.690;2022-10-22T06:05:15;11.60;99.90
16140;DHT22;8175;49.326;12.690;2022-10-22T06:07:41;11.60;99.90
16140;DHT22;8175;49.326;12.690;2022-10-22T06:10:18;11.60;99.90
16140;DHT22;8175;49.326;12.690;2022-10-22T06:12:48;11.60;99.90
16140;DHT22;8175;49.326;12.690;2022-10-22T06:15:15;11.60;99.90
16140;DHT22;8175;49.326;12.690;2022-10-22T06:17:43;11.60;99.90
16140;DHT22;8175;49.326;12.690;2022-10-22T06:20:10;11.60;99.90
16140;DHT22;8175;49.326;12.690;2022-10-22T06:22:36;11.60;99.90
16140;DHT22;8175;49.326;12.690;2022-10-22T06:25:03;11.60;99.90
16140;DHT22;8175;49.326;12.690;2022-10-22T06:27:28;11.60;99.90
16140;DHT22;8175;49.326;12.690;2022-10-22T06:29:54;11.60;99.90
16140;DHT22;8175;49.326;12.690;2022-10-22T06:32:20;11.50;99.90
16140;DHT22;8175;49.326;12.690;2022-10-22T06:34:46;11.40;99.90
16140;DHT22;8175;49.326;12.690;2022-10-22T06:37:12;11.40;99.90
16140;DHT22;8175;49.326;12.690;2022-10-22T06:39:39;11.40;99.90
16140;DHT22;8175;49.326;12.690;2022-10-22T06:42:05;11.30;99.90
16140;DHT22;8175;49.326;12.690;2022-10-22T06:44:31;11.20;99.90
16140;DHT22;8175;49.326;12.690;2022-10-22T06:46:56;11.20;99.90
16140;DHT22;8175;49.326;12.690;2022-10-22T06:49:22;11.20;99.90
16140;DHT22;8175;49.326;12.690;2022-10-22T06:51:51;11.20;99.90
16140;DHT22;8175;49.326;12.690;2022-10-22T06:54:18;11.30;99.90
16140;DHT22;8175;49.326;12.690;2022-10-22T06:56:44;11.40;99.90
16140;DHT22;8175;49.326;12.690;2022-10-22T06:59:09;11.40;99.90
16140;DHT22;8175;49.326;12.690;2022-10-22T07:01:36;11.40;99.90
16140;DHT22;8175;49.326;12.690;2022-10-22T07:04:02;11.50;99.90
16140;DHT22;8175;49.326;12.690;2022-10-22T07:06:29;11.50;99.90
16140;DHT22;8175;49.326;12.690;2022-10-22T07:08:56;11.50;99.90
16140;DHT22;8175;49.326;12.690;2022-10-22T07:11:25;11.50;99.90
16140;DHT22;8175;49.326;12.690;2022-10-22T07:13:53;11.60;99.90
16140;DHT22;8175;49.326;12.690;2022-10-22T07:16:20;11.60;99.90
16140;DHT22;8175;49.326;12.690;2022-10-22T07:18:46;11.80;99.90
16140;DHT22;8175;49.326;12.690;2022-10-22T07:21:14;11.90;99.90
16140;DHT22;8175;49.326;12.690;2022-10-22T07:23:40;12.00;99.90
16140;DHT22;8175;49.326;12.690;2022-10-22T07:26:07;12.00;99.90
16140;DHT22;8175;49.326;12.690;2022-10-22T07:28:34;11.90;99.90
16140;DHT22;8175;49.326;12.690;2022-10-22T07:31:00;11.90;99.90
16140;DHT22;8175;49.326;12.690;2022-10-22T07:33:26;12.00;99.90
16140;DHT22;8175;49.326;12.690;2022-10-22T07:35:57;11.90;99.90
16140;DHT22;8175;49.326;12.690;2022-10-22T07:38:24;12.00;99.90
16140;DHT22;8175;49.326;12.690;2022-10-22T07:40:49;12.00;99.90
16140;DHT22;8175;49.326;12.690;2022-10-22T07:43:15;11.90;99.90
16140;DHT22;8175;49.326;12.690;2022-10-22T07:45:41;11.80;99.90
16140;DHT22;8175;49.326;12.690;2022-10-22T07:48:06;11.80;99.90
16140;DHT22;8175;49.326;12.690;2022-10-22T07:50:32;11.80;99.90
16140;DHT22;8175;49.326;12.690;2022-10-22T07:52:58;11.90;99.90
16140;DHT22;8175;49.326;12.690;2022-10-22T07:55:24;12.10;99.90
16140;DHT22;8175;49.326;12.690;2022-10-22T07:57:49;12.30;99.90
16140;DHT22;8175;49.326;12.690;2022-10-22T08:00:16;12.50;99.90
16140;DHT22;8175;49.326;12.690;2022-10-22T08:02:42;12.50;99.90
16140;DHT22;8175;49.326;12.690;2022-10-22T08:05:08;12.50;99.90
16140;DHT22;8175;49.326;12.690;2022-10-22T08:07:34;12.70;99.90
16140;DHT22;8175;49.326;12.690;2022-10-22T08:09:59;12.80;99.90
16140;DHT22;8175;49.326;12.690;2022-10-22T08:12:25;12.70;99.90
16140;DHT22;8175;49.326;12.690;2022-10-22T08:14:51;12.50;99.90
16140;DHT22;8175;49.326;12.690;2022-10-22T08:17:16;12.60;99.90
16140;DHT22;8175;49.326;12.690;2022-10-22T08:19:42;12.40;99.90
16140;DHT22;8175;49.326;12.690;2022-10-22T08:22:08;12.30;99.90
16140;DHT22;8175;49.326;12.690;2022-10-22T08:24:34;12.30;99.90
16140;DHT22;8175;49.326;12.690;2022-10-22T08:26:59;12.30;99.90
16140;DHT22;8175;49.326;12.690;2022-10-22T08:29:25;12.40;99.90
16140;DHT22;8175;49.326;12.690;2022-10-22T08:31:51;12.60;99.90
16140;DHT22;8175;49.326;12.690;2022-10-22T08:34:18;12.70;99.90
16140;DHT22;8175;49.326;12.690;2022-10-22T08:36:45;12.80;99.90
16140;DHT22;8175;49.326;12.690;2022-10-22T08:39:11;12.80;99.90
16140;DHT22;8175;49.326;12.690;2022-10-22T08:41:47;12.70;99.90
16140;DHT22;8175;49.326;12.690;2022-10-22T08:47:12;12.50;99.90
16140;DHT22;8175;49.326;12.690;2022-10-22T08:49:43;12.50;99.90
16140;DHT22;8175;49.326;12.690;2022-10-22T08:52:15;12.60;99.90
16140;DHT22;8175;49.326;12.690;2022-10-22T08:54:57;12.70;99.90
16140;DHT22;8175;49.326;12.690;2022-10-22T08:57:45;12.60;99.90
16140;DHT22;8175;49.326;12.690;2022-10-22T09:08:11;13.20;99.90
16140;DHT22;8175;49.326;12.690;2022-10-22T09:10:42;13.20;99.90
16140;DHT22;8175;49.326;12.690;2022-10-22T09:13:15;13.30;99.90
16140;DHT22;8175;49.326;12.690;2022-10-22T09:15:43;13.30;99.90
16140;DHT22;8175;49.326;12.690;2022-10-22T09:18:32;13.20;99.90
16140;DHT22;8175;49.326;12.690;2022-10-22T09:24:11;13.60;99.90
16140;DHT22;8175;49.326;12.690;2022-10-22T09:26:39;13.70;99.90
16140;DHT22;8175;49.326;12.690;2022-10-22T09:29:06;13.70;99.90
16140;DHT22;8175;49.326;12.690;2022-10-22T09:31:32;13.80;99.90
16140;DHT22;8175;49.326;12.690;2022-10-22T09:33:59;13.70;99.90
16140;DHT22;8175;49.326;12.690;2022-10-22T09:36:30;13.80;99.90
16140;DHT22;8175;49.326;12.690;2022-10-22T09:38:56;13.80;99.90
16140;DHT22;8175;49.326;12.690;2022-10-22T09:41:25;13.80;99.90
16140;DHT22;8175;49.326;12.690;2022-10-22T09:43:52;13.60;99.90
16140;DHT22;8175;49.326;12.690;2022-10-22T09:46:21;13.60;99.90
16140;DHT22;8175;49.326;12.690;2022-10-22T09:48:51;13.70;99.90
16140;DHT22;8175;49.326;12.690;2022-10-22T09:51:24;13.80;99.90
16140;DHT22;8175;49.326;12.690;2022-10-22T09:54:01;14.00;99.90
16140;DHT22;8175;49.326;12.690;2022-10-22T09:56:33;14.00;99.90
16140;DHT22;8175;49.326;12.690;2022-10-22T09:59:00;14.10;99.90
16140;DHT22;8175;49.326;12.690;2022-10-22T10:01:27;14.20;99.90
16140;DHT22;8175;49.326;12.690;2022-10-22T10:04:00;14.20;99.90
16140;DHT22;8175;49.326;12.690;2022-10-22T10:06:31;14.20;99.90
16140;DHT22;8175;49.326;12.690;2022-10-22T10:08:56;14.10;99.90
16140;DHT22;8175;49.326;12.690;2022-10-22T10:39:22;15.30;99.90
16140;DHT22;8175;49.326;12.690;2022-10-22T11:01:58;14.50;99.90
16140;DHT22;8175;49.326;12.690;2022-10-22T11:04:37;14.40;99.90
16140;DHT22;8175;49.326;12.690;2022-10-22T11:07:10;14.50;99.90
16140;DHT22;8175;49.326;12.690;2022-10-22T11:09:53;14.80;99.90
16140;DHT22;8175;49.326;12.690;2022-10-22T11:12:25;15.00;99.90
16140;DHT22;8175;49.326;12.690;2022-10-22T11:15:40;15.30;99.90
16140;DHT22;8175;49.326;12.690;2022-10-22T11:17:47;15.30;99.90
16140;DHT22;8175;49.326;12.690;2022-10-22T11:23:09;15.30;99.90
16140;DHT22;8175;49.326;12.690;2022-10-22T11:25:44;15.20;99.90
16140;DHT22;8175;49.326;12.690;2022-10-22T11:28:32;15.30;99.90
16140;DHT22;8175;49.326;12.690;2022-10-22T11:31:15;15.30;99.90
16140;DHT22;8175;49.326;12.690;2022-10-22T11:33:52;15.50;99.90
16140;DHT22;8175;49.326;12.690;2022-10-22T11:36:23;15.20;99.90
16140;DHT22;8175;49.326;12.690;2022-10-22T11:38:50;15.20;99.90
16140;DHT22;8175;49.326;12.690;2022-10-22T11:41:18;15.10;99.90
16140;DHT22;8175;49.326;12.690;2022-10-22T11:46:52;14.90;99.90
16140;DHT22;8175;49.326;12.690;2022-10-22T11:49:23;14.80;99.90
16140;DHT22;8175;49.326;12.690;2022-10-22T11:51:49;14.80;99.90
16140;DHT22;8175;49.326;12.690;2022-10-22T12:04:48;15.50;99.90
16140;DHT22;8175;49.326;12.690;2022-10-22T12:07:40;15.50;99.90
16140;DHT22;8175;49.326;12.690;2022-10-22T12:10:21;15.50;99.90
16140;DHT22;8175;49.326;12.690;2022-10-22T12:12:57;15.50;99.90
16140;DHT22;8175;49.326;12.690;2022-10-22T12:15:26;15.40;99.90
16140;DHT22;8175;49.326;12.690;2022-10-22T12:17:58;15.30;99.90
16140;DHT22;8175;49.326;12.690;2022-10-22T12:20:25;15.10;99.90
16140;DHT22;8175;49.326;12.690;2022-10-22T12:22:51;15.00;99.90
16140;DHT22;8175;49.326;12.690;2022-10-22T12:25:23;15.00;99.90
16140;DHT22;8175;49.326;12.690;2022-10-22T12:27:53;15.00;99.90
16140;DHT22;8175;49.326;12.690;2022-10-22T12:30:25;15.10;99.90
16140;DHT22;8175;49.326;12.690;2022-10-22T12:32:56;15.40;99.90
16140;DHT22;8175;49.326;12.690;2022-10-22T12:35:25;15.30;99.90
16140;DHT22;8175;49.326;12.690;2022-10-22T12:37:56;15.50;99.90
16140;DHT22;8175;49.326;12.690;2022-10-22T12:42:53;17.70;99.90
16140;DHT22;8175;49.326;12.690;2022-10-22T12:45:19;18.70;99.90
16140;DHT22;8175;49.326;12.690;2022-10-22T12:47:49;19.90;99.90
16140;DHT22;8175;49.326;12.690;2022-10-22T12:50:20;19.70;99.90
16140;DHT22;8175;49.326;12.690;2022-10-22T12:52:47;18.30;99.90
16140;DHT22;8175;49.326;12.690;2022-10-22T12:55:18;17.70;99.90
16140;DHT22;8175;49.326;12.690;2022-10-22T12:57:47;18.30;99.90
16140;DHT22;8175;49.326;12.690;2022-10-22T13:00:21;19.70;99.90
16140;DHT22;8175;49.326;12.690;2022-10-22T13:02:48;20.00;99.90
16140;DHT22;8175;49.326;12.690;2022-10-22T13:07:49;20.30;99.90
16140;DHT22;8175;49.326;12.690;2022-10-22T13:10:31;21.00;99.90
16140;DHT22;8175;49.326;12.690;2022-10-22T13:12:58;21.70;99.90
16140;DHT22;8175;49.326;12.690;2022-10-22T13:18:19;21.70;99.90
16140;DHT22;8175;49.326;12.690;2022-10-22T13:20:56;21.40;99.90
16140;DHT22;8175;49.326;12.690;2022-10-22T13:23:24;21.40;99.90
16140;DHT22;8175;49.326;12.690;2022-10-22T13:26:03;20.90;99.90
16140;DHT22;8175;49.326;12.690;2022-10-22T13:28:36;20.50;99.90
16140;DHT22;8175;49.326;12.690;2022-10-22T13:31:16;19.70;99.90
16140;DHT22;8175;49.326;12.690;2022-10-22T13:33:44;19.00;99.90
16140;DHT22;8175;49.326;12.690;2022-10-22T13:36:13;19.10;99.90
16140;DHT22;8175;49.326;12.690;2022-10-22T13:38:41;19.70;99.90
16140;DHT22;8175;49.326;12.690;2022-10-22T13:41:27;20.30;99.90
16140;DHT22;8175;49.326;12.690;2022-10-22T13:43:53;20.80;99.90
16140;DHT22;8175;49.326;12.690;2022-10-22T13:46:20;21.30;99.90
16140;DHT22;8175;49.326;12.690;2022-10-22T13:48:47;21.60;99.90
16140;DHT22;8175;49.326;12.690;2022-10-22T13:51:16;21.50;99.90
16140;DHT22;8175;49.326;12.690;2022-10-22T13:53:44;21.80;99.90
16140;DHT22;8175;49.326;12.690;2022-10-22T13:56:14;22.10;99.90
16140;DHT22;8175;49.326;12.690;2022-10-22T13:58:42;22.20;99.90
16140;DHT22;8175;49.326;12.690;2022-10-22T14:01:20;21.60;99.90
16140;DHT22;8175;49.326;12.690;2022-10-22T14:03:48;21.50;99.90
16140;DHT22;8175;49.326;12.690;2022-10-22T14:06:15;21.00;99.90
16140;DHT22;8175;49.326;12.690;2022-10-22T14:08:43;20.40;99.90
16140;DHT22;8175;49.326;12.690;2022-10-22T14:11:12;20.20;99.90
16140;DHT22;8175;49.326;12.690;2022-10-22T14:13:39;20.50;99.90
16140;DHT22;8175;49.326;12.690;2022-10-22T14:16:06;20.50;99.90
16140;DHT22;8175;49.326;12.690;2022-10-22T14:18:32;20.10;99.90
16140;DHT22;8175;49.326;12.690;2022-10-22T14:21:01;19.90;99.90
16140;DHT22;8175;49.326;12.690;2022-10-22T14:23:30;20.00;99.90
16140;DHT22;8175;49.326;12.690;2022-10-22T14:25:57;20.40;99.90
16140;DHT22;8175;49.326;12.690;2022-10-22T14:28:23;20.30;99.90
16140;DHT22;8175;49.326;12.690;2022-10-22T14:30:49;20.90;99.90
16140;DHT22;8175;49.326;12.690;2022-10-22T14:33:21;20.90;99.90
16140;DHT22;8175;49.326;12.690;2022-10-22T14:35:48;20.70;99.90
16140;DHT22;8175;49.326;12.690;2022-10-22T14:38:14;20.80;99.90
16140;DHT22;8175;49.326;12.690;2022-10-22T14:40:40;20.70;99.90
16140;DHT22;8175;49.326;12.690;2022-10-22T14:43:28;20.20;99.90
16140;DHT22;8175;49.326;12.690;2022-10-22T14:45:56;19.30;99.90
16140;DHT22;8175;49.326;12.690;2022-10-22T14:48:22;18.80;99.90
16140;DHT22;8175;49.326;12.690;2022-10-22T14:50:48;18.40;99.90
16140;DHT22;8175;49.326;12.690;2022-10-22T14:53:14;17.70;99.90
16140;DHT22;8175;49.326;12.690;2022-10-22T14:55:42;17.00;99.90
16140;DHT22;8175;49.326;12.690;2022-10-22T14:58:11;16.50;99.90
16140;DHT22;8175;49.326;12.690;2022-10-22T15:00:39;16.00;99.90
16140;DHT22;8175;49.326;12.690;2022-10-22T15:03:05;15.60;99.90
16140;DHT22;8175;49.326;12.690;2022-10-22T15:05:30;15.30;99.90
16140;DHT22;8175;49.326;12.690;2022-10-22T15:07:56;15.10;99.90
16140;DHT22;8175;49.326;12.690;2022-10-22T15:10:24;14.90;99.90
16140;DHT22;8175;49.326;12.690;2022-10-22T15:12:49;14.70;99.90
16140;DHT22;8175;49.326;12.690;2022-10-22T15:15:15;14.50;99.90
16140;DHT22;8175;49.326;12.690;2022-10-22T15:17:40;14.40;99.90
16140;DHT22;8175;49.326;12.690;2022-10-22T15:20:06;14.20;99.90
16140;DHT22;8175;49.326;12.690;2022-10-22T15:22:33;14.10;99.90
16140;DHT22;8175;49.326;12.690;2022-10-22T15:25:07;14.00;99.90
16140;DHT22;8175;49.326;12.690;2022-10-22T15:27:33;13.90;99.90
16140;DHT22;8175;49.326;12.690;2022-10-22T15:29:59;13.80;99.90
16140;DHT22;8175;49.326;12.690;2022-10-22T15:32:26;13.70;99.90
16140;DHT22;8175;49.326;12.690;2022-10-22T15:34:53;13.60;99.90
16140;DHT22;8175;49.326;12.690;2022-10-22T15:37:19;13.60;99.90
16140;DHT22;8175;49.326;12.690;2022-10-22T15:39:45;13.60;99.90
16140;DHT22;8175;49.326;12.690;2022-10-22T15:42:11;13.60;99.90
16140;DHT22;8175;49.326;12.690;2022-10-22T15:44:39;13.60;99.90
16140;DHT22;8175;49.326;12.690;2022-10-22T15:47:05;13.50;99.90
16140;DHT22;8175;49.326;12.690;2022-10-22T15:49:33;13.50;99.90
16140;DHT22;8175;49.326;12.690;2022-10-22T15:51:59;13.30;99.90
16140;DHT22;8175;49.326;12.690;2022-10-22T15:54:27;13.20;99.90
16140;DHT22;8175;49.326;12.690;2022-10-22T15:56:53;12.90;99.90
16140;DHT22;8175;49.326;12.690;2022-10-22T15:59:19;12.80;99.90
16140;DHT22;8175;49.326;12.690;2022-10-22T16:01:45;12.60;99.90
16140;DHT22;8175;49.326;12.690;2022-10-22T16:04:10;12.40;99.90
16140;DHT22;8175;49.326;12.690;2022-10-22T16:06:41;12.20;99.90
16140;DHT22;8175;49.326;12.690;2022-10-22T16:09:11;12.00;99.90
16140;DHT22;8175;49.326;12.690;2022-10-22T16:11:37;11.80;99.90
16140;DHT22;8175;49.326;12.690;2022-10-22T16:14:04;11.70;99.90
16140;DHT22;8175;49.326;12.690;2022-10-22T16:16:33;11.60;99.90
16140;DHT22;8175;49.326;12.690;2022-10-22T16:18:59;11.50;99.90
16140;DHT22;8175;49.326;12.690;2022-10-22T16:21:25;11.40;99.90
16140;DHT22;8175;49.326;12.690;2022-10-22T16:23:51;11.40;99.90
16140;DHT22;8175;49.326;12.690;2022-10-22T16:26:18;11.40;99.90
16140;DHT22;8175;49.326;12.690;2022-10-22T16:28:44;11.50;99.90
16140;DHT22;8175;49.326;12.690;2022-10-22T16:31:12;11.40;99.90
16140;DHT22;8175;49.326;12.690;2022-10-22T16:33:39;11.40;99.90
16140;DHT22;8175;49.326;12.690;2022-10-22T16:36:07;11.30;99.90
16140;DHT22;8175;49.326;12.690;2022-10-22T16:38:33;11.20;99.90
16140;DHT22;8175;49.326;12.690;2022-10-22T16:41:12;11.20;99.90
16140;DHT22;8175;49.326;12.690;2022-10-22T16:43:39;11.00;99.90
16140;DHT22;8175;49.326;12.690;2022-10-22T16:46:05;10.80;99.90
16140;DHT22;8175;49.326;12.690;2022-10-22T16:48:32;10.70;99.90
16140;DHT22;8175;49.326;12.690;2022-10-22T16:50:58;10.70;99.90
16140;DHT22;8175;49.326;12.690;2022-10-22T16:53:24;10.70;99.90
16140;DHT22;8175;49.326;12.690;2022-10-22T16:55:50;10.70;99.90
16140;DHT22;8175;49.326;12.690;2022-10-22T16:58:15;10.70;99.90
16140;DHT22;8175;49.326;12.690;2022-10-22T17:00:41;10.70;99.90
16140;DHT22;8175;49.326;12.690;2022-10-22T17:03:10;10.70;99.90
16140;DHT22;8175;49.326;12.690;2022-10-22T17:05:36;10.70;99.90
16140;DHT22;8175;49.326;12.690;2022-10-22T17:08:01;10.70;99.90
16140;DHT22;8175;49.326;12.690;2022-10-22T17:10:27;10.70;99.90
16140;DHT22;8175;49.326;12.690;2022-10-22T17:12:52;10.70;99.90
16140;DHT22;8175;49.326;12.690;2022-10-22T17:15:18;10.70;99.90
16140;DHT22;8175;49.326;12.690;2022-10-22T17:17:44;10.60;99.90
16140;DHT22;8175;49.326;12.690;2022-10-22T17:20:13;10.50;99.90
16140;DHT22;8175;49.326;12.690;2022-10-22T17:22:39;10.50;99.90
16140;DHT22;8175;49.326;12.690;2022-10-22T17:25:14;10.40;99.90
16140;DHT22;8175;49.326;12.690;2022-10-22T17:27:42;10.40;99.90
16140;DHT22;8175;49.326;12.690;2022-10-22T17:30:11;10.60;99.90